Sidney Municipal-Lloyd W Carr Field
KSNY : rendu visible

Aérodrome :











RETROUVEZ-NOUS SUR...

 
LOGIN :

S'inscrire | Disclaimer

   EN    FR    IT 

 









Légende :    VFR   VFR Marginal   IFR   IFR Intensif   IFR Très Intensif
Visi : 
Plafond : 
>= 8 km
>= 3000ft
5 à 8 km
1000 à 3000 ft
1500m à 5 km
500 à 1000 ft
800 à 1500m
200 à 500 ft
< 800m
< 200 ft
Symboles :   Orages  Brouillard  Fortes neiges  Fortes précipitations  Vent > 20 kt






- Altitude de l'aérodrome : 4313 ft


KSNY - Sidney Municipal-Lloyd W Carr Field

DERNIER METAR :
  • 172353Z AUTO 27007KT 10SM CLR 01/M02 A2967 RMK AO2 SLP071 60000 T00111022 10050 21017 55000

METARs EXPIRÉS :
  • 172253Z AUTO 31006KT 10SM CLR 03/M01 A2964 RMK AO2 SLP059 T00331011
  • 172153Z AUTO 32007KT 10SM BKN049 OVC065 04/M01 A2965 RMK AO2 RAB18E28 SLP060 P0000 T00391006

TAF KSNY
Valide du 18 à 00h jusqu'au 19 à 00h UTC


172320Z 1800/1824 30012G23KT P6SM OVC100
FM180500 33030G40KT P6SM FEW070
FM180900 32020G30KT P6SM SKC
FM182200 32013KT P6SM SKC



MET'MAP, la Météo Aéronautique d'un coup d'oeil ! - Copyright ORBIFLY Décembre 2007 - Disclaimer

ORBIFLY MET'MAP TEAM :

Programmation & Développement : Alexandra Zaïnal
Sur une idée originale de : Baudouin d'Aumeries
Assistance à la programmation : Marc-Olivier Méhu
Soutien technique & logistique : Manuel Goepfert

Contact : metmap@orbifly.com




SOURCES & CREDITS :

   NOAA       Earth
Advisory